sensor_id;sensor_type;location;lat;lon;timestamp;P1;durP1;ratioP1;P2;durP2;ratioP2
47896;SDS011;39629;51.400;5.494;2024-02-04T00:04:39;10.20;;;5.75;;
47896;SDS011;39629;51.400;5.494;2024-02-04T00:09:41;9.27;;;5.30;;
47896;SDS011;39629;51.400;5.494;2024-02-04T00:14:45;9.57;;;5.23;;
47896;SDS011;39629;51.400;5.494;2024-02-04T00:19:50;9.85;;;5.18;;
47896;SDS011;39629;51.400;5.494;2024-02-04T00:24:53;9.55;;;4.88;;
47896;SDS011;39629;51.400;5.494;2024-02-04T00:29:55;7.13;;;4.00;;
47896;SDS011;39629;51.400;5.494;2024-02-04T00:34:58;7.97;;;4.50;;
47896;SDS011;39629;51.400;5.494;2024-02-04T00:40:03;9.30;;;4.82;;
47896;SDS011;39629;51.400;5.494;2024-02-04T00:45:06;8.80;;;4.38;;
47896;SDS011;39629;51.400;5.494;2024-02-04T00:50:10;10.45;;;5.00;;
47896;SDS011;39629;51.400;5.494;2024-02-04T00:55:13;10.75;;;5.10;;
47896;SDS011;39629;51.400;5.494;2024-02-04T01:00:15;10.00;;;5.30;;
47896;SDS011;39629;51.400;5.494;2024-02-04T01:05:19;11.18;;;5.40;;
47896;SDS011;39629;51.400;5.494;2024-02-04T01:10:21;10.20;;;5.90;;
47896;SDS011;39629;51.400;5.494;2024-02-04T01:15:23;11.25;;;6.07;;
47896;SDS011;39629;51.400;5.494;2024-02-04T01:20:27;12.20;;;6.40;;
47896;SDS011;39629;51.400;5.494;2024-02-04T01:25:30;13.43;;;6.68;;
47896;SDS011;39629;51.400;5.494;2024-02-04T01:30:34;13.25;;;6.50;;
47896;SDS011;39629;51.400;5.494;2024-02-04T01:35:39;12.02;;;6.38;;
47896;SDS011;39629;51.400;5.494;2024-02-04T01:40:41;11.88;;;6.15;;
47896;SDS011;39629;51.400;5.494;2024-02-04T01:45:43;15.93;;;7.70;;
47896;SDS011;39629;51.400;5.494;2024-02-04T01:50:48;14.85;;;7.03;;
47896;SDS011;39629;51.400;5.494;2024-02-04T01:55:56;12.35;;;6.82;;
47896;SDS011;39629;51.400;5.494;2024-02-04T02:01:00;14.43;;;7.10;;
47896;SDS011;39629;51.400;5.494;2024-02-04T02:06:05;13.27;;;6.28;;
47896;SDS011;39629;51.400;5.494;2024-02-04T02:11:08;13.45;;;7.18;;
47896;SDS011;39629;51.400;5.494;2024-02-04T02:16:15;15.07;;;7.50;;
47896;SDS011;39629;51.400;5.494;2024-02-04T02:21:38;18.13;;;7.97;;
47896;SDS011;39629;51.400;5.494;2024-02-04T02:26:50;16.80;;;7.18;;
47896;SDS011;39629;51.400;5.494;2024-02-04T02:31:53;15.13;;;7.57;;
47896;SDS011;39629;51.400;5.494;2024-02-04T02:36:57;14.93;;;7.68;;
47896;SDS011;39629;51.400;5.494;2024-02-04T02:42:07;14.57;;;7.13;;
47896;SDS011;39629;51.400;5.494;2024-02-04T02:47:12;17.88;;;6.90;;
47896;SDS011;39629;51.400;5.494;2024-02-04T02:52:16;18.95;;;6.70;;
47896;SDS011;39629;51.400;5.494;2024-02-04T02:57:19;15.38;;;5.95;;
47896;SDS011;39629;51.400;5.494;2024-02-04T03:02:21;14.37;;;6.30;;
47896;SDS011;39629;51.400;5.494;2024-02-04T03:07:24;12.90;;;5.85;;
47896;SDS011;39629;51.400;5.494;2024-02-04T03:12:27;13.23;;;5.70;;
47896;SDS011;39629;51.400;5.494;2024-02-04T03:17:29;14.87;;;6.10;;
47896;SDS011;39629;51.400;5.494;2024-02-04T03:22:33;15.40;;;5.60;;
47896;SDS011;39629;51.400;5.494;2024-02-04T03:27:37;14.25;;;5.60;;
47896;SDS011;39629;51.400;5.494;2024-02-04T03:32:41;11.95;;;4.82;;
47896;SDS011;39629;51.400;5.494;2024-02-04T03:37:44;15.67;;;5.63;;
47896;SDS011;39629;51.400;5.494;2024-02-04T03:42:48;13.27;;;6.10;;
47896;SDS011;39629;51.400;5.494;2024-02-04T03:47:50;11.88;;;6.50;;
47896;SDS011;39629;51.400;5.494;2024-02-04T03:52:52;14.70;;;6.53;;
47896;SDS011;39629;51.400;5.494;2024-02-04T03:57:57;13.05;;;6.00;;
47896;SDS011;39629;51.400;5.494;2024-02-04T04:02:59;16.58;;;6.68;;
47896;SDS011;39629;51.400;5.494;2024-02-04T04:08:01;12.40;;;6.43;;
47896;SDS011;39629;51.400;5.494;2024-02-04T04:13:05;14.05;;;6.15;;
47896;SDS011;39629;51.400;5.494;2024-02-04T04:18:07;13.27;;;6.60;;
47896;SDS011;39629;51.400;5.494;2024-02-04T04:23:11;13.88;;;6.47;;
47896;SDS011;39629;51.400;5.494;2024-02-04T04:28:15;17.50;;;7.00;;
47896;SDS011;39629;51.400;5.494;2024-02-04T04:33:18;15.88;;;7.15;;
47896;SDS011;39629;51.400;5.494;2024-02-04T04:38:21;15.63;;;7.30;;
47896;SDS011;39629;51.400;5.494;2024-02-04T04:43:24;16.70;;;7.03;;
47896;SDS011;39629;51.400;5.494;2024-02-04T04:48:27;16.60;;;7.35;;
47896;SDS011;39629;51.400;5.494;2024-02-04T04:53:29;20.85;;;8.52;;
47896;SDS011;39629;51.400;5.494;2024-02-04T04:58:34;25.77;;;11.20;;
47896;SDS011;39629;51.400;5.494;2024-02-04T05:03:36;23.50;;;11.43;;
47896;SDS011;39629;51.400;5.494;2024-02-04T05:08:38;30.25;;;12.77;;
47896;SDS011;39629;51.400;5.494;2024-02-04T05:13:42;30.15;;;13.73;;
47896;SDS011;39629;51.400;5.494;2024-02-04T05:18:44;34.22;;;13.43;;
47896;SDS011;39629;51.400;5.494;2024-02-04T05:23:46;31.92;;;13.43;;
47896;SDS011;39629;51.400;5.494;2024-02-04T05:28:50;30.85;;;13.05;;
47896;SDS011;39629;51.400;5.494;2024-02-04T05:33:51;35.67;;;13.82;;
47896;SDS011;39629;51.400;5.494;2024-02-04T05:38:54;32.55;;;13.55;;
47896;SDS011;39629;51.400;5.494;2024-02-04T05:44:00;31.23;;;13.35;;
47896;SDS011;39629;51.400;5.494;2024-02-04T05:49:04;36.50;;;13.85;;
47896;SDS011;39629;51.400;5.494;2024-02-04T05:54:06;32.20;;;12.85;;
47896;SDS011;39629;51.400;5.494;2024-02-04T05:59:10;29.20;;;12.73;;
47896;SDS011;39629;51.400;5.494;2024-02-04T06:04:13;30.47;;;13.03;;
47896;SDS011;39629;51.400;5.494;2024-02-04T06:09:14;25.50;;;11.00;;
47896;SDS011;39629;51.400;5.494;2024-02-04T06:14:18;30.02;;;11.13;;
47896;SDS011;39629;51.400;5.494;2024-02-04T06:19:21;27.13;;;11.52;;
47896;SDS011;39629;51.400;5.494;2024-02-04T06:24:23;22.67;;;11.23;;
47896;SDS011;39629;51.400;5.494;2024-02-04T06:29:27;22.88;;;10.32;;
47896;SDS011;39629;51.400;5.494;2024-02-04T06:34:29;25.30;;;11.10;;
47896;SDS011;39629;51.400;5.494;2024-02-04T06:39:31;22.75;;;10.77;;
47896;SDS011;39629;51.400;5.494;2024-02-04T06:44:35;22.75;;;10.95;;
47896;SDS011;39629;51.400;5.494;2024-02-04T06:49:37;22.93;;;10.43;;
47896;SDS011;39629;51.400;5.494;2024-02-04T06:54:40;25.90;;;11.73;;
47896;SDS011;39629;51.400;5.494;2024-02-04T06:59:44;24.58;;;10.85;;
47896;SDS011;39629;51.400;5.494;2024-02-04T07:04:46;24.95;;;11.30;;
47896;SDS011;39629;51.400;5.494;2024-02-04T07:09:48;26.27;;;10.85;;
47896;SDS011;39629;51.400;5.494;2024-02-04T07:14:52;25.65;;;10.60;;
47896;SDS011;39629;51.400;5.494;2024-02-04T07:19:54;23.58;;;10.63;;
47896;SDS011;39629;51.400;5.494;2024-02-04T07:24:56;22.33;;;9.95;;
47896;SDS011;39629;51.400;5.494;2024-02-04T07:30:00;20.50;;;9.57;;
47896;SDS011;39629;51.400;5.494;2024-02-04T07:35:04;20.70;;;9.18;;
47896;SDS011;39629;51.400;5.494;2024-02-04T07:40:09;21.60;;;9.73;;
47896;SDS011;39629;51.400;5.494;2024-02-04T07:45:13;22.63;;;9.45;;
47896;SDS011;39629;51.400;5.494;2024-02-04T07:50:15;17.58;;;8.73;;
47896;SDS011;39629;51.400;5.494;2024-02-04T07:55:17;20.00;;;8.93;;
47896;SDS011;39629;51.400;5.494;2024-02-04T08:00:20;19.85;;;8.82;;
47896;SDS011;39629;51.400;5.494;2024-02-04T08:05:22;20.10;;;8.20;;
47896;SDS011;39629;51.400;5.494;2024-02-04T08:10:24;16.73;;;7.88;;
47896;SDS011;39629;51.400;5.494;2024-02-04T08:15:27;18.27;;;8.15;;
47896;SDS011;39629;51.400;5.494;2024-02-04T08:20:28;19.88;;;8.35;;
47896;SDS011;39629;51.400;5.494;2024-02-04T08:25:30;18.58;;;8.10;;
47896;SDS011;39629;51.400;5.494;2024-02-04T08:30:33;18.92;;;8.52;;
47896;SDS011;39629;51.400;5.494;2024-02-04T08:35:34;17.65;;;7.20;;
47896;SDS011;39629;51.400;5.494;2024-02-04T08:40:36;14.75;;;7.82;;
47896;SDS011;39629;51.400;5.494;2024-02-04T08:45:39;20.33;;;8.68;;
47896;SDS011;39629;51.400;5.494;2024-02-04T08:50:41;19.15;;;8.48;;
47896;SDS011;39629;51.400;5.494;2024-02-04T08:55:42;20.10;;;8.25;;
47896;SDS011;39629;51.400;5.494;2024-02-04T09:00:45;16.52;;;7.65;;
47896;SDS011;39629;51.400;5.494;2024-02-04T09:05:47;13.98;;;7.05;;
47896;SDS011;39629;51.400;5.494;2024-02-04T09:10:49;17.52;;;7.75;;
47896;SDS011;39629;51.400;5.494;2024-02-04T09:15:52;15.65;;;6.65;;
47896;SDS011;39629;51.400;5.494;2024-02-04T09:20:54;14.27;;;7.30;;
47896;SDS011;39629;51.400;5.494;2024-02-04T09:25:55;13.88;;;6.90;;
47896;SDS011;39629;51.400;5.494;2024-02-04T09:30:58;15.38;;;7.20;;
47896;SDS011;39629;51.400;5.494;2024-02-04T09:36:00;14.32;;;6.32;;
47896;SDS011;39629;51.400;5.494;2024-02-04T09:41:01;13.25;;;6.00;;
47896;SDS011;39629;51.400;5.494;2024-02-04T09:46:05;15.50;;;6.70;;
47896;SDS011;39629;51.400;5.494;2024-02-04T09:51:07;14.03;;;6.47;;
47896;SDS011;39629;51.400;5.494;2024-02-04T09:56:10;14.20;;;6.10;;
47896;SDS011;39629;51.400;5.494;2024-02-04T10:01:16;14.20;;;6.15;;
47896;SDS011;39629;51.400;5.494;2024-02-04T10:11:20;10.98;;;5.43;;
47896;SDS011;39629;51.400;5.494;2024-02-04T10:16:24;9.80;;;5.55;;
47896;SDS011;39629;51.400;5.494;2024-02-04T10:21:26;14.10;;;5.32;;
47896;SDS011;39629;51.400;5.494;2024-02-04T10:26:29;10.35;;;4.95;;
47896;SDS011;39629;51.400;5.494;2024-02-04T10:31:33;10.40;;;4.80;;
47896;SDS011;39629;51.400;5.494;2024-02-04T10:36:34;12.20;;;5.03;;
47896;SDS011;39629;51.400;5.494;2024-02-04T10:41:36;11.25;;;5.25;;
47896;SDS011;39629;51.400;5.494;2024-02-04T10:46:45;11.98;;;5.35;;
47896;SDS011;39629;51.400;5.494;2024-02-04T10:51:48;13.02;;;5.57;;
47896;SDS011;39629;51.400;5.494;2024-02-04T10:56:53;11.03;;;5.20;;
47896;SDS011;39629;51.400;5.494;2024-02-04T11:01:58;10.23;;;5.20;;
47896;SDS011;39629;51.400;5.494;2024-02-04T11:12:05;8.32;;;4.50;;
47896;SDS011;39629;51.400;5.494;2024-02-04T11:17:19;11.13;;;4.28;;
47896;SDS011;39629;51.400;5.494;2024-02-04T11:22:40;8.82;;;3.90;;
47896;SDS011;39629;51.400;5.494;2024-02-04T11:27:55;8.88;;;4.15;;
47896;SDS011;39629;51.400;5.494;2024-02-04T11:33:01;9.05;;;4.13;;
47896;SDS011;39629;51.400;5.494;2024-02-04T11:38:02;9.45;;;4.20;;
47896;SDS011;39629;51.400;5.494;2024-02-04T11:43:05;8.07;;;4.05;;
47896;SDS011;39629;51.400;5.494;2024-02-04T11:48:09;10.57;;;4.50;;
47896;SDS011;39629;51.400;5.494;2024-02-04T11:53:12;9.77;;;4.60;;
47896;SDS011;39629;51.400;5.494;2024-02-04T11:58:14;11.50;;;4.63;;
47896;SDS011;39629;51.400;5.494;2024-02-04T12:03:17;10.07;;;4.50;;
47896;SDS011;39629;51.400;5.494;2024-02-04T12:08:31;11.80;;;4.28;;
47896;SDS011;39629;51.400;5.494;2024-02-04T12:13:34;12.27;;;4.43;;
47896;SDS011;39629;51.400;5.494;2024-02-04T12:18:48;9.18;;;4.53;;
47896;SDS011;39629;51.400;5.494;2024-02-04T12:23:50;10.57;;;4.93;;
47896;SDS011;39629;51.400;5.494;2024-02-04T12:28:52;12.23;;;4.90;;
47896;SDS011;39629;51.400;5.494;2024-02-04T12:33:55;9.55;;;4.57;;
47896;SDS011;39629;51.400;5.494;2024-02-04T12:38:58;7.82;;;4.25;;
47896;SDS011;39629;51.400;5.494;2024-02-04T12:44:01;10.43;;;4.20;;
47896;SDS011;39629;51.400;5.494;2024-02-04T12:49:06;7.30;;;4.30;;
47896;SDS011;39629;51.400;5.494;2024-02-04T12:54:08;10.48;;;4.78;;
47896;SDS011;39629;51.400;5.494;2024-02-04T12:59:11;9.30;;;5.30;;
47896;SDS011;39629;51.400;5.494;2024-02-04T13:04:14;7.80;;;4.45;;
47896;SDS011;39629;51.400;5.494;2024-02-04T13:09:16;9.07;;;4.65;;
47896;SDS011;39629;51.400;5.494;2024-02-04T13:14:18;8.77;;;4.40;;
47896;SDS011;39629;51.400;5.494;2024-02-04T13:19:23;9.50;;;4.70;;
47896;SDS011;39629;51.400;5.494;2024-02-04T13:24:25;7.88;;;4.82;;
47896;SDS011;39629;51.400;5.494;2024-02-04T13:29:26;11.77;;;5.22;;
47896;SDS011;39629;51.400;5.494;2024-02-04T13:34:30;9.10;;;4.85;;
47896;SDS011;39629;51.400;5.494;2024-02-04T13:39:31;9.43;;;5.10;;
47896;SDS011;39629;51.400;5.494;2024-02-04T13:44:34;9.45;;;5.10;;
47896;SDS011;39629;51.400;5.494;2024-02-04T13:49:37;7.82;;;4.90;;
47896;SDS011;39629;51.400;5.494;2024-02-04T13:54:38;8.25;;;4.70;;
47896;SDS011;39629;51.400;5.494;2024-02-04T13:59:40;9.13;;;5.20;;
47896;SDS011;39629;51.400;5.494;2024-02-04T14:04:43;10.07;;;5.07;;
47896;SDS011;39629;51.400;5.494;2024-02-04T14:09:45;11.35;;;5.03;;
47896;SDS011;39629;51.400;5.494;2024-02-04T14:14:47;7.45;;;4.68;;
47896;SDS011;39629;51.400;5.494;2024-02-04T14:19:50;8.18;;;4.57;;
47896;SDS011;39629;51.400;5.494;2024-02-04T14:24:52;7.13;;;4.33;;
47896;SDS011;39629;51.400;5.494;2024-02-04T14:29:54;8.52;;;4.20;;
47896;SDS011;39629;51.400;5.494;2024-02-04T14:34:57;8.10;;;4.00;;
47896;SDS011;39629;51.400;5.494;2024-02-04T14:39:59;7.10;;;4.00;;
47896;SDS011;39629;51.400;5.494;2024-02-04T14:45:01;6.85;;;3.97;;
47896;SDS011;39629;51.400;5.494;2024-02-04T14:50:05;6.68;;;4.00;;
47896;SDS011;39629;51.400;5.494;2024-02-04T14:55:07;8.18;;;3.67;;
47896;SDS011;39629;51.400;5.494;2024-02-04T15:00:10;5.75;;;3.30;;
47896;SDS011;39629;51.400;5.494;2024-02-04T15:05:15;6.47;;;3.30;;
47896;SDS011;39629;51.400;5.494;2024-02-04T15:10:17;8.07;;;3.35;;
47896;SDS011;39629;51.400;5.494;2024-02-04T15:15:19;8.10;;;3.05;;
47896;SDS011;39629;51.400;5.494;2024-02-04T15:20:23;7.72;;;3.20;;
47896;SDS011;39629;51.400;5.494;2024-02-04T15:25:25;8.57;;;3.33;;
47896;SDS011;39629;51.400;5.494;2024-02-04T15:30:27;5.97;;;2.90;;
47896;SDS011;39629;51.400;5.494;2024-02-04T15:35:31;6.25;;;2.97;;
47896;SDS011;39629;51.400;5.494;2024-02-04T15:40:34;6.65;;;3.00;;
47896;SDS011;39629;51.400;5.494;2024-02-04T15:45:35;8.20;;;2.83;;
47896;SDS011;39629;51.400;5.494;2024-02-04T15:50:39;7.22;;;2.38;;
47896;SDS011;39629;51.400;5.494;2024-02-04T15:55:42;7.20;;;2.50;;
47896;SDS011;39629;51.400;5.494;2024-02-04T16:00:46;8.32;;;2.33;;
47896;SDS011;39629;51.400;5.494;2024-02-04T16:05:49;8.27;;;2.60;;
47896;SDS011;39629;51.400;5.494;2024-02-04T16:10:51;5.28;;;2.53;;
47896;SDS011;39629;51.400;5.494;2024-02-04T16:15:56;6.97;;;2.20;;
47896;SDS011;39629;51.400;5.494;2024-02-04T16:21:04;4.50;;;1.92;;
47896;SDS011;39629;51.400;5.494;2024-02-04T16:26:06;5.13;;;2.57;;
47896;SDS011;39629;51.400;5.494;2024-02-04T16:31:08;6.88;;;2.30;;
47896;SDS011;39629;51.400;5.494;2024-02-04T16:36:11;5.03;;;2.30;;
47896;SDS011;39629;51.400;5.494;2024-02-04T16:41:13;7.30;;;2.60;;
47896;SDS011;39629;51.400;5.494;2024-02-04T16:46:15;5.15;;;2.20;;
47896;SDS011;39629;51.400;5.494;2024-02-04T16:51:18;5.30;;;2.50;;
47896;SDS011;39629;51.400;5.494;2024-02-04T16:56:19;6.80;;;2.17;;
47896;SDS011;39629;51.400;5.494;2024-02-04T17:01:23;8.97;;;2.40;;
47896;SDS011;39629;51.400;5.494;2024-02-04T17:06:27;10.57;;;2.28;;
47896;SDS011;39629;51.400;5.494;2024-02-04T17:11:30;10.57;;;2.85;;
47896;SDS011;39629;51.400;5.494;2024-02-04T17:16:32;12.05;;;2.47;;
47896;SDS011;39629;51.400;5.494;2024-02-04T17:21:42;8.00;;;2.47;;
47896;SDS011;39629;51.400;5.494;2024-02-04T17:26:50;7.75;;;2.67;;
47896;SDS011;39629;51.400;5.494;2024-02-04T17:31:55;11.20;;;2.88;;
47896;SDS011;39629;51.400;5.494;2024-02-04T17:37:00;5.07;;;2.30;;
47896;SDS011;39629;51.400;5.494;2024-02-04T17:42:01;8.77;;;2.90;;
47896;SDS011;39629;51.400;5.494;2024-02-04T17:47:05;9.38;;;3.10;;
47896;SDS011;39629;51.400;5.494;2024-02-04T17:52:08;9.05;;;2.75;;
47896;SDS011;39629;51.400;5.494;2024-02-04T17:57:10;6.10;;;2.58;;
47896;SDS011;39629;51.400;5.494;2024-02-04T18:02:12;8.13;;;2.67;;
47896;SDS011;39629;51.400;5.494;2024-02-04T18:07:15;11.75;;;3.03;;
47896;SDS011;39629;51.400;5.494;2024-02-04T18:12:19;11.10;;;2.58;;
47896;SDS011;39629;51.400;5.494;2024-02-04T18:17:20;8.65;;;2.88;;
47896;SDS011;39629;51.400;5.494;2024-02-04T18:22:23;10.70;;;2.80;;
47896;SDS011;39629;51.400;5.494;2024-02-04T18:27:25;10.95;;;3.17;;
47896;SDS011;39629;51.400;5.494;2024-02-04T18:32:26;7.05;;;2.92;;
47896;SDS011;39629;51.400;5.494;2024-02-04T18:37:29;9.85;;;3.20;;
47896;SDS011;39629;51.400;5.494;2024-02-04T18:42:32;13.03;;;3.60;;
47896;SDS011;39629;51.400;5.494;2024-02-04T18:47:34;7.72;;;3.28;;
47896;SDS011;39629;51.400;5.494;2024-02-04T18:52:37;7.57;;;2.88;;
47896;SDS011;39629;51.400;5.494;2024-02-04T18:57:38;10.25;;;3.42;;
47896;SDS011;39629;51.400;5.494;2024-02-04T19:02:43;8.27;;;3.10;;
47896;SDS011;39629;51.400;5.494;2024-02-04T19:07:46;9.68;;;3.13;;
47896;SDS011;39629;51.400;5.494;2024-02-04T19:12:48;9.27;;;3.15;;
47896;SDS011;39629;51.400;5.494;2024-02-04T19:17:50;8.20;;;3.10;;
47896;SDS011;39629;51.400;5.494;2024-02-04T19:22:53;9.32;;;3.22;;
47896;SDS011;39629;51.400;5.494;2024-02-04T19:27:55;7.93;;;3.30;;
47896;SDS011;39629;51.400;5.494;2024-02-04T19:32:57;9.27;;;3.65;;
47896;SDS011;39629;51.400;5.494;2024-02-04T19:38:00;9.77;;;3.80;;
47896;SDS011;39629;51.400;5.494;2024-02-04T19:43:03;8.10;;;3.50;;
47896;SDS011;39629;51.400;5.494;2024-02-04T19:48:05;8.48;;;3.17;;
47896;SDS011;39629;51.400;5.494;2024-02-04T19:53:10;8.57;;;3.58;;
47896;SDS011;39629;51.400;5.494;2024-02-04T19:58:11;10.05;;;3.50;;
47896;SDS011;39629;51.400;5.494;2024-02-04T20:03:13;7.78;;;3.22;;
47896;SDS011;39629;51.400;5.494;2024-02-04T20:08:18;11.98;;;3.42;;
47896;SDS011;39629;51.400;5.494;2024-02-04T20:13:19;10.25;;;3.70;;
47896;SDS011;39629;51.400;5.494;2024-02-04T20:18:21;7.82;;;3.58;;
47896;SDS011;39629;51.400;5.494;2024-02-04T20:23:24;9.48;;;3.67;;
47896;SDS011;39629;51.400;5.494;2024-02-04T20:28:26;12.10;;;4.05;;
47896;SDS011;39629;51.400;5.494;2024-02-04T20:33:28;11.38;;;4.15;;
47896;SDS011;39629;51.400;5.494;2024-02-04T20:38:31;9.00;;;3.55;;
47896;SDS011;39629;51.400;5.494;2024-02-04T20:43:32;13.52;;;4.50;;
47896;SDS011;39629;51.400;5.494;2024-02-04T20:48:34;13.23;;;4.10;;
47896;SDS011;39629;51.400;5.494;2024-02-04T20:53:37;11.20;;;3.97;;
47896;SDS011;39629;51.400;5.494;2024-02-04T20:58:39;8.45;;;3.72;;
47896;SDS011;39629;51.400;5.494;2024-02-04T21:03:41;12.90;;;3.70;;
47896;SDS011;39629;51.400;5.494;2024-02-04T21:08:44;13.82;;;3.75;;
47896;SDS011;39629;51.400;5.494;2024-02-04T21:13:46;12.65;;;3.83;;
47896;SDS011;39629;51.400;5.494;2024-02-04T21:18:47;12.00;;;3.42;;
47896;SDS011;39629;51.400;5.494;2024-02-04T21:23:50;17.00;;;4.28;;
47896;SDS011;39629;51.400;5.494;2024-02-04T21:28:52;8.98;;;3.58;;
47896;SDS011;39629;51.400;5.494;2024-02-04T21:33:54;12.20;;;4.10;;
47896;SDS011;39629;51.400;5.494;2024-02-04T21:38:57;9.15;;;3.80;;
47896;SDS011;39629;51.400;5.494;2024-02-04T21:43:59;11.57;;;4.20;;
47896;SDS011;39629;51.400;5.494;2024-02-04T21:49:00;11.60;;;3.95;;
47896;SDS011;39629;51.400;5.494;2024-02-04T21:54:03;15.55;;;4.05;;
47896;SDS011;39629;51.400;5.494;2024-02-04T21:59:05;9.90;;;3.85;;
47896;SDS011;39629;51.400;5.494;2024-02-04T22:04:07;14.05;;;3.72;;
47896;SDS011;39629;51.400;5.494;2024-02-04T22:09:10;13.35;;;4.35;;
47896;SDS011;39629;51.400;5.494;2024-02-04T22:14:13;14.48;;;3.88;;
47896;SDS011;39629;51.400;5.494;2024-02-04T22:19:14;12.93;;;4.60;;
47896;SDS011;39629;51.400;5.494;2024-02-04T22:24:17;15.30;;;4.50;;
47896;SDS011;39629;51.400;5.494;2024-02-04T22:29:19;10.57;;;4.10;;
47896;SDS011;39629;51.400;5.494;2024-02-04T22:34:21;10.85;;;3.85;;
47896;SDS011;39629;51.400;5.494;2024-02-04T22:39:24;17.48;;;4.80;;
47896;SDS011;39629;51.400;5.494;2024-02-04T22:44:25;11.73;;;3.75;;
47896;SDS011;39629;51.400;5.494;2024-02-04T22:49:27;21.75;;;3.88;;
47896;SDS011;39629;51.400;5.494;2024-02-04T22:54:30;17.05;;;3.50;;
47896;SDS011;39629;51.400;5.494;2024-02-04T22:59:32;12.93;;;3.72;;
47896;SDS011;39629;51.400;5.494;2024-02-04T23:04:33;11.77;;;3.28;;
47896;SDS011;39629;51.400;5.494;2024-02-04T23:09:37;13.73;;;3.00;;
47896;SDS011;39629;51.400;5.494;2024-02-04T23:14:39;15.60;;;3.42;;
47896;SDS011;39629;51.400;5.494;2024-02-04T23:19:40;13.88;;;2.97;;
47896;SDS011;39629;51.400;5.494;2024-02-04T23:24:43;14.75;;;2.92;;
47896;SDS011;39629;51.400;5.494;2024-02-04T23:29:45;9.20;;;2.67;;
47896;SDS011;39629;51.400;5.494;2024-02-04T23:34:47;13.18;;;3.13;;
47896;SDS011;39629;51.400;5.494;2024-02-04T23:39:50;12.50;;;3.08;;
47896;SDS011;39629;51.400;5.494;2024-02-04T23:44:52;13.73;;;3.10;;
47896;SDS011;39629;51.400;5.494;2024-02-04T23:49:54;16.73;;;2.55;;
47896;SDS011;39629;51.400;5.494;2024-02-04T23:54:57;17.38;;;3.22;;
47896;SDS011;39629;51.400;5.494;2024-02-04T23:59:59;11.43;;;2.50;;
